Time;durP1;ratioP1;P1;durP2;ratioP2;P2;SDS_P1;SDS_P2;PMS_P1;PMS_P2;Temp;Humidity;BMP_temperature;BMP_pressure;BME280_temperature;BME280_humidity;BME280_pressure;Samples;Min_cycle;Max_cycle;Signal;HPM_P1;HPM_P2
2022/09/01 00:00:12;;;;;;;1.65;0.60;;;;;;;17.53;53.26;100694.09;5035074;28;20044;-79
2022/09/01 00:02:37;;;;;;;2.88;1.02;;;;;;;17.59;53.34;100697.31;5038620;28;20028;-80
2022/09/01 00:05:03;;;;;;;;;;;;;;;17.62;53.11;100689.09;5057025;28;20476;-79
2022/09/01 00:07:30;;;;;;;1.55;0.60;;;;;;;17.66;53.01;100695.50;5056361;28;19912;-79
2022/09/01 00:09:55;;;;;;;1.98;0.70;;;;;;;17.51;53.38;100693.66;5038401;28;20029;-79
2022/09/01 00:12:22;;;;;;;;;;;;;;;17.49;53.58;100690.47;5057162;28;20118;-80
2022/09/01 00:14:47;;;;;;;4.93;0.73;;;;;;;17.47;53.74;100695.56;5056091;28;20223;-80
2022/09/01 00:17:12;;;;;;;2.75;0.70;;;;;;;17.51;53.60;100692.88;5056208;28;20033;-81
2022/09/01 00:19:38;;;;;;;2.55;0.52;;;;;;;17.38;53.90;100695.00;5056409;28;20048;-80
2022/09/01 00:22:04;;;;;;;;;;;;;;;17.25;54.27;100702.63;5038766;28;20033;-81
2022/09/01 00:24:29;;;;;;;2.25;0.75;;;;;;;17.40;53.90;100704.47;5055954;28;19980;-81
2022/09/01 00:26:55;;;;;;;2.95;0.80;;;;;;;17.59;53.39;100695.34;5038221;28;20079;-80
2022/09/01 00:29:22;;;;;;;2.53;0.80;;;;;;;17.56;53.55;100703.56;5056320;28;20086;-80
2022/09/01 00:31:48;;;;;;;2.25;0.82;;;;;;;17.49;53.72;100704.25;5037936;28;20497;-80
2022/09/01 00:34:14;;;;;;;2.13;0.80;;;;;;;17.37;54.34;100698.91;5055977;28;20021;-80
2022/09/01 00:36:39;;;;;;;1.00;0.47;;;;;;;17.28;54.22;100695.59;5056138;28;20115;-80
2022/09/01 00:39:05;;;;;;;;;;;;;;;17.33;54.32;100700.81;5056373;28;20040;-80
2022/09/01 00:41:34;;;;;;;2.28;0.75;;;;;;;17.26;54.21;100698.72;5056090;28;20345;-80
2022/09/01 00:44:04;;;;;;;1.95;0.82;;;;;;;17.59;53.98;100700.88;5055711;28;20072;-80
2022/09/01 00:46:38;;;;;;;1.45;0.52;;;;;;;17.55;53.57;100690.97;5055774;28;20033;-80
2022/09/01 00:49:08;;;;;;;1.58;0.65;;;;;;;17.40;54.07;100692.69;5055417;28;20086;-79
2022/09/01 00:51:37;;;;;;;2.10;0.65;;;;;;;17.25;54.33;100691.63;5055802;28;20028;-81
2022/09/01 00:54:05;;;;;;;2.20;0.80;;;;;;;17.13;54.82;100689.84;5055808;28;20048;-80
2022/09/01 00:56:33;;;;;;;2.00;0.77;;;;;;;17.07;54.87;100685.78;5055402;28;20033;-80
2022/09/01 00:59:00;;;;;;;2.25;0.93;;;;;;;17.11;55.02;100694.91;5055519;28;20064;-80
2022/09/01 01:01:27;;;;;;;3.20;1.20;;;;;;;17.14;55.00;100690.66;5055711;28;20395;-80
2022/09/01 01:03:52;;;;;;;2.47;0.70;;;;;;;17.08;55.07;100687.38;5055632;28;20084;-81
2022/09/01 01:06:22;;;;;;;3.00;1.27;;;;;;;17.02;55.24;100682.56;5055822;28;20096;-80
2022/09/01 01:08:55;;;;;;;2.92;1.13;;;;;;;16.98;55.48;100685.25;5055274;28;20059;-80
2022/09/01 01:11:21;;;;;;;1.80;0.70;;;;;;;17.04;55.49;100682.97;5037661;28;20064;-80
2022/09/01 01:13:56;;;;;;;3.47;1.23;;;;;;;16.95;55.74;100683.19;5055329;28;20447;-80
2022/09/01 01:16:23;;;;;;;10.55;1.10;;;;;;;16.90;56.00;100686.25;5055468;28;20215;-80
2022/09/01 01:18:49;;;;;;;2.83;0.95;;;;;;;16.90;56.14;100683.50;5055046;28;20039;-81
2022/09/01 01:24:18;;;;;;;1.92;0.80;;;;;;;16.82;56.19;100684.53;5055446;28;20043;-79
2022/09/01 01:26:44;;;;;;;1.85;0.80;;;;;;;16.84;56.48;100676.72;5038589;28;20107;-80
2022/09/01 01:29:10;;;;;;;1.85;1.00;;;;;;;16.71;56.76;100680.75;5055061;28;20025;-79
2022/09/01 01:31:36;;;;;;;;;;;;;;;16.65;56.97;100672.00;5055189;28;20037;-80
2022/09/01 01:34:06;;;;;;;2.45;0.75;;;;;;;16.63;57.26;100676.22;5055443;28;19909;-80
2022/09/01 01:36:35;;;;;;;2.28;0.68;;;;;;;16.65;57.12;100687.69;5054707;28;20050;-79
2022/09/01 01:39:20;;;;;;;3.00;0.95;;;;;;;16.63;57.41;100681.72;5055045;28;20087;-79
2022/09/01 01:41:47;;;;;;;1.83;0.80;;;;;;;16.75;57.01;100679.66;5054850;28;20051;-80
2022/09/01 01:44:15;;;;;;;2.00;0.80;;;;;;;16.59;57.64;100678.91;5036702;28;20441;-81
2022/09/01 01:46:44;;;;;;;2.70;0.80;;;;;;;16.61;57.79;100686.81;5054831;28;20115;-80
2022/09/01 01:49:12;;;;;;;3.28;0.80;;;;;;;16.52;58.01;100681.53;5055028;28;20471;-80
2022/09/01 01:51:38;;;;;;;2.85;1.15;;;;;;;16.64;57.88;100688.84;5055117;28;20025;-80
2022/09/01 01:54:04;;;;;;;2.70;0.90;;;;;;;16.69;57.67;100697.63;5055017;28;20040;-81
2022/09/01 01:56:32;;;;;;;2.35;1.00;;;;;;;16.74;57.53;100699.28;5054733;28;20021;-80
2022/09/01 01:59:00;;;;;;;2.25;1.02;;;;;;;16.55;57.96;100705.53;5055018;28;20048;-80
2022/09/01 02:01:28;;;;;;;1.30;0.57;;;;;;;16.51;58.14;100707.44;5054782;28;20067;-80
2022/09/01 02:03:55;;;;;;;1.58;0.68;;;;;;;16.45;58.01;100709.66;5054775;28;20565;-80
2022/09/01 02:06:23;;;;;;;1.98;0.90;;;;;;;16.32;58.35;100712.91;5054824;28;20025;-80
2022/09/01 02:08:51;;;;;;;2.28;0.95;;;;;;;16.30;58.27;100707.78;5054153;28;20033;-80
2022/09/01 02:11:17;;;;;;;2.50;0.70;;;;;;;16.32;58.31;100699.97;5054296;28;20032;-80
2022/09/01 02:13:43;;;;;;;2.50;0.90;;;;;;;16.41;58.03;100700.53;5054534;28;20029;-80
2022/09/01 02:16:11;;;;;;;;;;;;;;;16.41;58.07;100697.00;5054601;28;20029;-80
2022/09/01 02:18:41;;;;;;;1.67;0.60;;;;;;;16.39;58.28;100700.09;5054819;28;19915;-80
2022/09/01 02:21:09;;;;;;;2.20;0.73;;;;;;;16.40;58.06;100695.41;5054337;28;20402;-80
2022/09/01 02:23:37;;;;;;;4.35;1.23;;;;;;;16.48;57.80;100699.91;5053559;28;20029;-80
2022/09/01 02:26:05;;;;;;;2.25;0.85;;;;;;;16.41;57.96;100705.25;5054371;28;20032;-80
2022/09/01 02:28:35;;;;;;;2.65;0.70;;;;;;;16.37;57.91;100701.63;5053959;28;20029;-79
2022/09/01 02:31:02;;;;;;;1.70;0.90;;;;;;;16.27;57.81;100702.97;5053948;28;20037;-80
2022/09/01 02:33:29;;;;;;;2.35;0.85;;;;;;;16.10;58.22;100704.16;5054173;28;20029;-79
2022/09/01 02:35:57;;;;;;;3.63;0.95;;;;;;;15.98;58.82;100703.50;5054048;28;20043;-80
2022/09/01 02:38:25;;;;;;;2.45;0.68;;;;;;;15.86;58.94;100699.69;5053781;28;20040;-80
2022/09/01 02:40:52;;;;;;;1.95;0.70;;;;;;;15.80;59.44;100703.88;5053695;28;20025;-80
2022/09/01 02:43:19;;;;;;;2.72;0.95;;;;;;;15.77;59.64;100695.53;5053850;28;20036;-80
2022/09/01 02:45:53;;;;;;;2.83;0.90;;;;;;;15.82;59.33;100698.81;5053781;28;20472;-80
2022/09/01 02:48:21;;;;;;;2.60;1.10;;;;;;;15.69;59.86;100694.56;5053332;28;20037;-80
2022/09/01 02:50:47;;;;;;;2.00;0.77;;;;;;;15.83;59.29;100702.34;5053649;28;20032;-80
2022/09/01 02:53:14;;;;;;;3.47;1.23;;;;;;;15.76;59.53;100697.47;5053766;28;20079;-80
2022/09/01 02:55:40;;;;;;;1.90;0.75;;;;;;;15.63;59.93;100699.53;5053738;28;20036;-79
2022/09/01 02:58:09;;;;;;;1.90;0.80;;;;;;;15.59;60.09;100695.88;5053735;28;20032;-80
2022/09/01 03:00:38;;;;;;;2.03;0.73;;;;;;;15.51;60.39;100698.78;5053585;28;20053;-79
2022/09/01 03:03:05;;;;;;;3.78;0.80;;;;;;;15.50;60.80;100699.94;5053441;28;20032;-79
2022/09/01 03:05:31;;;;;;;2.50;0.70;;;;;;;15.56;60.24;100696.56;5053182;28;20045;-79
2022/09/01 03:07:58;;;;;;;;;;;;;;;15.54;60.27;100692.59;5053727;28;20163;-79
2022/09/01 03:10:35;;;;;;;;;;;;;;;15.53;60.29;100697.28;5053599;28;20009;-80
2022/09/01 03:13:10;;;;;;;1.42;0.60;;;;;;;15.49;60.69;100695.59;5053427;28;19924;-79
2022/09/01 03:15:37;;;;;;;1.48;0.60;;;;;;;15.42;61.09;100696.19;5053125;28;20041;-79
2022/09/01 03:18:04;;;;;;;3.08;1.30;;;;;;;15.31;61.56;100695.94;5035277;28;20040;-80
2022/09/01 03:20:32;;;;;;;3.22;0.98;;;;;;;15.33;61.71;100701.06;5052763;28;20388;-79
2022/09/01 03:23:02;;;;;;;2.92;0.80;;;;;;;15.43;61.44;100697.00;5052836;28;20039;-78
2022/09/01 03:25:28;;;;;;;2.30;0.75;;;;;;;15.43;61.37;100699.75;5053060;28;20033;-79
2022/09/01 03:27:58;;;;;;;2.92;0.98;;;;;;;15.36;61.50;100697.63;5052628;28;20454;-80
2022/09/01 03:30:25;;;;;;;2.80;0.85;;;;;;;15.19;62.32;100703.44;5052740;28;20029;-79
2022/09/01 03:32:51;;;;;;;5.05;1.50;;;;;;;15.21;62.50;100704.69;5053029;28;20021;-79
2022/09/01 03:35:16;;;;;;;3.67;1.35;;;;;;;15.29;62.10;100703.72;5052725;28;20021;-80
2022/09/01 03:37:43;;;;;;;2.13;0.82;;;;;;;15.23;62.42;100705.13;5035001;28;20072;-81
2022/09/01 03:40:09;;;;;;;2.58;0.93;;;;;;;15.24;62.30;100703.16;5052650;28;20029;-78
2022/09/01 03:42:35;;;;;;;5.60;1.40;;;;;;;15.19;62.48;100704.22;5052413;28;20123;-80
2022/09/01 03:45:08;;;;;;;2.05;1.00;;;;;;;15.20;62.48;100705.03;5052596;28;20112;-79
2022/09/01 03:47:38;;;;;;;2.08;0.95;;;;;;;15.14;62.77;100701.75;5052746;28;20043;-80
2022/09/01 03:50:19;;;;;;;2.67;0.90;;;;;;;15.22;62.60;100706.28;5052503;28;20061;-80
2022/09/01 03:53:03;;;;;;;2.67;0.80;;;;;;;15.22;62.39;100702.72;5052778;28;20033;-79
2022/09/01 03:55:33;;;;;;;3.08;1.10;;;;;;;15.23;62.43;100707.88;5052432;28;20091;-80
2022/09/01 03:58:05;;;;;;;1.92;0.80;;;;;;;15.10;62.79;100700.84;5052487;28;20339;-79
2022/09/01 04:00:37;;;;;;;3.17;1.00;;;;;;;14.95;63.23;100696.16;5034652;28;20029;-79
2022/09/01 04:03:06;;;;;;;2.53;0.95;;;;;;;14.97;63.29;100697.38;5052729;28;20029;-79
2022/09/01 04:05:34;;;;;;;2.65;1.00;;;;;;;14.90;63.56;100699.13;5052869;28;20056;-80
2022/09/01 04:08:03;;;;;;;2.30;0.80;;;;;;;14.99;63.49;100692.34;5052370;28;20039;-80
2022/09/01 04:10:37;;;;;;;5.57;1.65;;;;;;;14.86;63.96;100690.00;5052415;28;20078;-80
2022/09/01 04:13:04;;;;;;;2.42;0.90;;;;;;;14.81;64.13;100695.75;5053089;28;20387;-81
2022/09/01 04:15:32;;;;;;;2.28;1.05;;;;;;;14.71;64.51;100695.06;5034579;28;20041;-79
2022/09/01 04:18:08;;;;;;;2.88;0.98;;;;;;;14.76;64.36;100691.28;5052472;28;20108;-80
2022/09/01 04:20:46;;;;;;;7.67;1.00;;;;;;;14.70;64.51;100696.22;5052295;28;20025;-77
2022/09/01 04:23:15;;;;;;;2.60;0.93;;;;;;;14.79;64.08;100684.34;5052550;28;20282;-76
2022/09/01 04:25:41;;;;;;;2.65;0.90;;;;;;;14.71;64.38;100695.06;5051994;28;20060;-80
2022/09/01 04:28:11;;;;;;;2.38;1.00;;;;;;;14.72;64.59;100690.41;5052341;28;20467;-79
2022/09/01 04:30:39;;;;;;;2.00;0.82;;;;;;;14.74;64.48;100693.59;5051757;28;20100;-77
2022/09/01 04:33:05;;;;;;;6.25;1.65;;;;;;;14.64;64.76;100689.41;5052102;28;20029;-77
2022/09/01 04:35:31;;;;;;;;;;;;;;;14.63;64.78;100695.25;5052286;28;20059;-77
2022/09/01 04:38:00;;;;;;;2.55;0.90;;;;;;;14.57;65.06;100694.66;5051846;28;20273;-77
2022/09/01 04:40:26;;;;;;;3.65;1.00;;;;;;;14.61;65.01;100690.09;5051556;28;20360;-78
2022/09/01 04:42:51;;;;;;;3.30;1.30;;;;;;;14.47;65.30;100695.16;5052274;28;20043;-78
2022/09/01 04:45:21;;;;;;;2.05;0.80;;;;;;;14.45;65.61;100697.47;5051609;28;20272;-77
2022/09/01 04:47:47;;;;;;;2.30;0.90;;;;;;;14.46;65.50;100692.78;5036774;28;20509;-77
2022/09/01 04:50:13;;;;;;;2.22;0.98;;;;;;;14.53;65.32;100691.03;5055458;28;20060;-77
2022/09/01 04:52:40;;;;;;;3.03;1.13;;;;;;;14.48;65.55;100695.97;5055408;28;20036;-77
2022/09/01 04:55:07;;;;;;;2.50;0.90;;;;;;;14.42;65.74;100698.09;5055499;28;20037;-77
2022/09/01 04:57:33;;;;;;;7.13;1.42;;;;;;;14.44;65.87;100696.66;5037667;28;20041;-77
2022/09/01 04:59:58;;;;;;;;;;;;;;;14.49;65.48;100698.34;5038154;28;20353;-78
2022/09/01 05:02:25;;;;;;;3.10;1.20;;;;;;;14.45;65.71;100697.47;5037292;28;20031;-76
2022/09/01 05:04:53;;;;;;;5.15;1.00;;;;;;;14.47;65.50;100700.66;5055413;28;20291;-77
2022/09/01 05:07:18;;;;;;;2.22;0.90;;;;;;;14.32;65.96;100704.06;5055489;28;20040;-77
2022/09/01 05:09:44;;;;;;;3.80;1.10;;;;;;;14.15;66.59;100703.19;5037093;28;20392;-77
2022/09/01 05:12:10;;;;;;;4.13;2.38;;;;;;;14.19;66.85;100702.50;5036870;28;20419;-77
2022/09/01 05:14:46;;;;;;;3.72;1.35;;;;;;;14.31;66.47;100708.75;5054560;28;20041;-79
2022/09/01 05:17:12;;;;;;;3.70;1.20;;;;;;;14.44;65.80;100702.16;5054944;28;20095;-76
2022/09/01 05:19:43;;;;;;;4.57;1.00;;;;;;;14.52;65.54;100702.34;5054889;28;20037;-78
2022/09/01 05:22:09;;;;;;;3.22;1.02;;;;;;;14.40;65.88;100694.91;5055062;28;20391;-78
2022/09/01 05:24:36;;;;;;;19.00;1.60;;;;;;;14.26;66.16;100699.97;5055333;28;20040;-78
2022/09/01 05:27:04;;;;;;;3.05;0.95;;;;;;;14.18;66.84;100703.63;5055010;28;20032;-79
2022/09/01 05:29:29;;;;;;;2.35;0.90;;;;;;;14.29;66.42;100702.03;5054799;28;20437;-78
2022/09/01 05:31:56;;;;;;;4.53;1.02;;;;;;;14.33;66.33;100697.44;5054671;28;20483;-78
2022/09/01 05:34:30;;;;;;;;;;;;;;;14.36;65.92;100708.50;5055419;28;20120;-77
2022/09/01 05:36:58;;;;;;;1.90;0.82;;;;;;;14.56;65.34;100704.03;5055128;28;19955;-79
2022/09/01 05:39:25;;;;;;;2.78;1.08;;;;;;;14.54;65.29;100711.81;5055104;28;20056;-78
2022/09/01 05:41:51;;;;;;;4.13;0.90;;;;;;;14.50;65.59;100708.16;5054869;28;20068;-78
2022/09/01 05:44:17;;;;;;;6.35;1.52;;;;;;;14.51;65.49;100707.03;5036744;28;20021;-75
2022/09/01 05:46:46;;;;;;;2.92;1.20;;;;;;;14.48;65.39;100713.19;5054678;28;20040;-84
2022/09/01 05:49:17;;;;;;;3.55;1.20;;;;;;;14.52;64.94;100713.31;5055651;28;20356;-82
2022/09/01 05:51:48;;;;;;;3.38;1.27;;;;;;;14.56;64.89;100709.50;5055677;28;20021;-85
2022/09/01 05:54:20;;;;;;;3.33;1.25;;;;;;;14.50;64.95;100715.59;5054864;28;20036;-83
2022/09/01 05:56:46;;;;;;;2.55;1.10;;;;;;;14.49;65.11;100712.06;5055426;28;20041;-85
2022/09/01 05:59:13;;;;;;;3.15;1.35;;;;;;;14.54;64.93;100713.75;5037076;28;20029;-84
2022/09/01 06:01:40;;;;;;;2.78;1.15;;;;;;;14.62;64.95;100715.56;5059995;28;20040;-86
2022/09/01 06:04:08;;;;;;;2.83;1.05;;;;;;;14.79;64.30;100718.03;5042171;28;20132;-85
2022/09/01 06:06:39;;;;;;;3.78;1.30;;;;;;;14.88;64.03;100715.91;5037876;28;20037;-83
2022/09/01 06:09:06;;;;;;;4.07;1.30;;;;;;;14.92;63.92;100721.50;5055182;28;20035;-83
2022/09/01 06:11:32;;;;;;;3.63;1.00;;;;;;;14.95;63.97;100720.81;5055690;28;20407;-82
2022/09/01 06:13:59;;;;;;;5.07;0.98;;;;;;;15.05;63.70;100718.34;5037527;28;20029;-83
2022/09/01 06:16:26;;;;;;;5.13;1.25;;;;;;;15.02;63.56;100715.53;5055288;28;20086;-82
2022/09/01 06:18:52;;;;;;;3.10;1.00;;;;;;;15.13;63.51;100722.09;5055019;28;20047;-82
2022/09/01 06:21:21;;;;;;;3.95;1.30;;;;;;;15.35;62.94;100726.22;5036952;28;20037;-82
2022/09/01 06:23:52;;;;;;;3.58;1.00;;;;;;;15.47;62.26;100722.59;5055403;28;20066;-82
2022/09/01 06:26:22;;;;;;;3.03;1.42;;;;;;;15.51;62.30;100716.06;5057352;28;20380;-82
2022/09/01 06:28:53;;;;;;;3.17;1.10;;;;;;;15.60;61.94;100718.63;5054996;28;20025;-81
2022/09/01 06:31:22;;;;;;;3.53;1.02;;;;;;;15.51;62.33;100726.22;5054033;28;20025;-81
2022/09/01 06:33:50;;;;;;;3.65;1.30;;;;;;;15.54;62.45;100722.78;5054767;28;20027;-81
2022/09/01 06:36:16;;;;;;;3.38;1.25;;;;;;;15.66;61.73;100717.25;5054246;28;20060;-81
2022/09/01 06:38:41;;;;;;;2.17;0.80;;;;;;;15.81;61.52;100723.88;5054158;28;20044;-81
2022/09/01 06:41:11;;;;;;;3.38;1.13;;;;;;;15.92;60.86;100720.22;5036177;28;20033;-81
2022/09/01 06:43:40;;;;;;;2.20;0.90;;;;;;;15.94;60.25;100723.41;5054724;28;20069;-82
2022/09/01 06:46:08;;;;;;;2.80;1.30;;;;;;;16.03;60.09;100730.69;5054151;28;20123;-82
2022/09/01 06:48:40;;;;;;;2.83;1.10;;;;;;;16.08;59.90;100727.66;5036114;28;20055;-81
2022/09/01 06:51:08;;;;;;;2.53;1.00;;;;;;;16.10;59.55;100728.09;5053337;28;20541;-80
2022/09/01 06:53:34;;;;;;;7.25;1.67;;;;;;;16.21;59.48;100726.38;5053438;28;20078;-80
2022/09/01 06:55:59;;;;;;;;;;;;;;;16.34;59.28;100727.88;5054263;28;20403;-81
2022/09/01 06:58:25;;;;;;;2.92;0.82;;;;;;;16.51;59.11;100730.22;5053744;28;19916;-81
2022/09/01 07:00:51;;;;;;;2.72;0.90;;;;;;;16.71;58.53;100724.75;5053644;28;20502;-81
2022/09/01 07:03:16;;;;;;;;;;;;;;;16.84;57.35;100732.50;5053831;28;20037;-79
2022/09/01 07:05:50;;;;;;;2.72;0.90;;;;;;;16.80;57.43;100728.91;5035482;28;19943;-82
2022/09/01 07:08:18;;;;;;;3.67;1.15;;;;;;;16.81;57.29;100733.25;5035852;28;20575;-81
2022/09/01 07:10:49;;;;;;;1.85;0.68;;;;;;;16.76;57.36;100730.75;5053168;28;20029;-80
2022/09/01 07:13:24;;;;;;;3.05;0.90;;;;;;;16.86;56.90;100723.91;5035536;28;20136;-81
2022/09/01 07:15:52;;;;;;;2.67;0.98;;;;;;;17.09;56.23;100722.00;5053223;28;20029;-81
2022/09/01 07:18:20;;;;;;;2.65;1.10;;;;;;;17.32;55.65;100732.25;5053300;28;20107;-81
2022/09/01 07:20:47;;;;;;;1.95;0.90;;;;;;;17.64;54.88;100725.38;5053651;28;20029;-82
2022/09/01 07:23:15;;;;;;;1.70;0.70;;;;;;;17.86;54.15;100721.03;5036470;28;20033;-80
2022/09/01 07:25:44;;;;;;;3.53;1.13;;;;;;;18.19;52.80;100731.38;5035253;28;20444;-81
2022/09/01 07:28:12;;;;;;;2.67;1.00;;;;;;;18.14;52.82;100723.44;5053314;28;20035;-83
2022/09/01 07:30:47;;;;;;;3.55;0.90;;;;;;;18.35;52.33;100720.19;5052946;28;20053;-84
2022/09/01 07:33:14;;;;;;;3.88;1.33;;;;;;;18.27;52.33;100721.25;5053555;28;20075;-82
2022/09/01 07:35:41;;;;;;;1.77;0.70;;;;;;;18.38;51.79;100724.16;5053156;28;20056;-81
2022/09/01 07:38:08;;;;;;;3.63;1.10;;;;;;;18.36;51.62;100729.25;5035185;28;20044;-81
2022/09/01 07:40:38;;;;;;;2.83;1.15;;;;;;;18.32;51.29;100730.00;5052871;28;20438;-81
2022/09/01 07:43:14;;;;;;;2.33;0.90;;;;;;;18.37;51.24;100728.09;5053127;28;20104;-81
2022/09/01 07:45:45;;;;;;;1.98;0.70;;;;;;;18.39;51.14;100734.00;5053158;28;20087;-82
2022/09/01 07:48:11;;;;;;;2.35;0.70;;;;;;;18.59;50.95;100729.94;5052578;28;20037;-81
2022/09/01 07:50:43;;;;;;;2.38;0.93;;;;;;;18.80;50.41;100724.72;5035182;28;20456;-81
2022/09/01 07:53:09;;;;;;;3.92;0.80;;;;;;;18.83;49.79;100721.25;5054169;28;20036;-81
2022/09/01 07:55:40;;;;;;;2.33;0.90;;;;;;;18.75;49.67;100727.81;5053854;28;20052;-80
2022/09/01 07:58:05;;;;;;;1.85;0.77;;;;;;;18.77;49.10;100722.72;5053115;28;20057;-82
2022/09/01 08:00:32;;;;;;;;;;;;;;;18.87;49.16;100729.56;5053712;28;20102;-82
2022/09/01 08:02:58;;;;;;;2.95;0.90;;;;;;;18.93;49.11;100723.31;5034724;28;19927;-80
2022/09/01 08:05:25;;;;;;;3.28;0.82;;;;;;;19.16;48.38;100730.69;5051918;28;20095;-81
2022/09/01 08:07:52;;;;;;;2.15;0.90;;;;;;;19.31;47.63;100726.88;5052063;28;20029;-79
2022/09/01 08:10:17;;;;;;;1.23;0.60;;;;;;;19.33;47.17;100727.31;5052745;28;20037;-81
2022/09/01 08:12:43;;;;;;;;;;;;;;;19.16;47.48;100714.13;5052244;28;20029;-80
2022/09/01 08:15:11;;;;;;;2.53;0.75;;;;;;;19.21;47.67;100724.81;5052744;28;19909;-82
2022/09/01 08:17:37;;;;;;;2.75;0.80;;;;;;;19.16;47.48;100737.00;5052170;28;20487;-82
2022/09/01 08:20:05;;;;;;;2.72;0.85;;;;;;;19.22;47.69;100737.44;5052206;28;20059;-82
2022/09/01 08:22:31;;;;;;;1.45;0.70;;;;;;;19.28;47.55;100730.41;5054640;28;20102;-82
2022/09/01 08:24:56;;;;;;;3.88;1.02;;;;;;;19.56;46.26;100737.41;5056554;28;20455;-85
2022/09/01 08:27:21;;;;;;;2.70;0.82;;;;;;;19.68;46.23;100731.63;5058211;28;20537;-83
2022/09/01 08:29:47;;;;;;;;;;;;;;;19.66;45.63;100736.72;5038593;28;20032;-82
2022/09/01 08:32:13;;;;;;;5.22;1.17;;;;;;;19.79;45.21;100741.56;5038914;28;19913;-82
2022/09/01 08:34:38;;;;;;;;;;;;;;;19.98;44.91;100737.75;5038861;28;20025;-82
2022/09/01 08:37:05;;;;;;;3.05;0.60;;;;;;;19.89;44.49;100731.00;5056204;28;19913;-80
2022/09/01 08:39:31;;;;;;;2.15;0.90;;;;;;;19.92;44.59;100721.94;5038422;28;20530;-82
2022/09/01 08:42:18;;;;;;;1.85;0.70;;;;;;;20.14;43.39;100732.75;5055958;28;20028;-81
2022/09/01 08:44:49;;;;;;;;;;;;;;;19.99;43.73;100722.78;5056410;28;20084;-80
2022/09/01 08:47:17;;;;;;;2.67;0.90;;;;;;;20.13;43.31;100724.84;5056740;28;20368;-82
2022/09/01 08:49:45;;;;;;;1.67;0.85;;;;;;;19.93;43.61;100723.50;5041685;28;20025;-82
2022/09/01 08:52:31;;;;;;;4.63;0.90;;;;;;;19.96;43.23;100718.00;5066889;28;20063;-81
2022/09/01 08:55:15;;;;;;;2.38;0.77;;;;;;;20.23;43.37;100718.59;5065116;28;20471;-81
2022/09/01 08:57:44;;;;;;;1.75;0.80;;;;;;;20.31;43.37;100725.75;5060908;28;20025;-79
2022/09/01 09:00:13;;;;;;;1.23;0.60;;;;;;;20.40;42.11;100719.88;5058466;28;20029;-81
2022/09/01 09:06:15;;;;;;;0.73;0.53;;;;;;;20.65;41.90;100720.03;5091974;27;20789;-81
2022/09/01 09:08:50;;;;;;;2.05;0.77;;;;;;;20.83;41.77;100711.81;5091425;28;20281;-81
2022/09/01 09:11:21;;;;;;;2.30;0.65;;;;;;;21.04;40.89;100703.59;5091661;28;20029;-80
2022/09/01 09:14:12;;;;;;;1.60;0.63;;;;;;;21.15;40.88;100709.91;5091007;28;20062;-81
2022/09/01 09:16:44;;;;;;;2.92;1.20;;;;;;;20.86;41.26;100709.06;5091846;28;20211;-81
2022/09/01 09:19:23;;;;;;;2.30;0.73;;;;;;;20.68;41.04;100711.75;5091656;28;20040;-80
2022/09/01 09:21:51;;;;;;;0.98;0.50;;;;;;;20.92;41.19;100703.94;5092612;28;20024;-80
2022/09/01 09:24:49;;;;;;;3.13;0.88;;;;;;;20.92;40.86;100710.25;5091217;28;20122;-82
2022/09/01 09:27:26;;;;;;;1.63;0.60;;;;;;;20.95;41.22;100695.63;5090567;28;20032;-83
2022/09/01 09:29:57;;;;;;;1.58;0.60;;;;;;;21.36;40.39;100692.59;5090538;28;20024;-81
2022/09/01 09:32:41;;;;;;;1.13;0.60;;;;;;;21.44;40.71;100698.94;5089835;28;20029;-81
2022/09/01 09:35:30;;;;;;;2.42;0.80;;;;;;;21.29;40.81;100698.91;5088759;28;20031;-82
2022/09/01 09:38:18;;;;;;;1.38;0.50;;;;;;;21.49;40.28;100698.53;5083040;28;20045;-82
2022/09/01 09:40:59;;;;;;;2.10;0.70;;;;;;;21.77;39.36;100697.75;5089677;28;20063;-82
2022/09/01 09:43:26;;;;;;;1.88;0.70;;;;;;;21.67;39.04;100691.03;5089832;28;20455;-83
2022/09/01 09:46:33;;;;;;;1.00;0.60;;;;;;;21.38;39.47;100694.97;5089977;28;20056;-81
2022/09/01 09:49:11;;;;;;;1.87;0.77;;;;;;;21.20;38.91;100686.63;5088302;28;20375;-81
2022/09/01 09:51:40;;;;;;;1.60;0.70;;;;;;;21.38;39.50;100678.34;5089309;28;20506;-80
2022/09/01 09:54:26;;;;;;;1.10;0.60;;;;;;;21.46;39.65;100671.63;5089271;28;20032;-82
2022/09/01 09:57:07;;;;;;;1.67;0.60;;;;;;;21.29;38.43;100679.53;5088224;28;20378;-81
2022/09/01 09:59:47;;;;;;;2.90;0.90;;;;;;;21.45;38.14;100676.38;5089343;28;20039;-81
2022/09/01 10:02:38;;;;;;;2.15;0.70;;;;;;;21.61;38.18;100675.97;5089419;28;20043;-82
2022/09/01 10:05:50;;;;;;;1.33;0.70;;;;;;;21.92;38.64;100660.50;5089381;28;20052;-81
2022/09/01 10:08:43;;;;;;;6.38;1.00;;;;;;;21.81;38.13;100656.97;5087277;28;20044;-81
2022/09/01 10:11:23;;;;;;;1.38;0.68;;;;;;;22.04;38.54;100659.31;5087766;28;20119;-80
2022/09/01 10:13:48;;;;;;;1.83;0.60;;;;;;;21.83;38.99;100658.13;5087904;28;20386;-83
2022/09/01 10:16:24;;;;;;;2.13;0.70;;;;;;;21.80;39.27;100660.91;5080490;28;20032;-81
2022/09/01 10:18:51;;;;;;;2.83;0.90;;;;;;;21.83;39.42;100652.59;5075796;28;20028;-82
2022/09/01 10:21:25;;;;;;;1.52;0.70;;;;;;;21.85;39.00;100641.13;5076084;28;20040;-81
2022/09/01 10:23:52;;;;;;;1.85;1.05;;;;;;;21.80;39.40;100652.59;5074413;28;20028;-82
2022/09/01 10:26:37;;;;;;;1.80;0.70;;;;;;;22.21;39.03;100653.75;5075332;28;20107;-82
2022/09/01 10:29:13;;;;;;;3.42;1.17;;;;;;;22.15;39.40;100654.53;5075497;28;20028;-82
2022/09/01 10:31:40;;;;;;;2.08;0.77;;;;;;;21.96;39.60;100652.97;5075586;28;20028;-80
2022/09/01 10:34:11;;;;;;;1.77;0.82;;;;;;;21.78;40.21;100650.22;5075411;28;20032;-82
2022/09/01 10:36:37;;;;;;;2.70;0.80;;;;;;;22.10;39.99;100636.34;5075380;28;20039;-82
2022/09/01 10:39:09;;;;;;;2.30;0.75;;;;;;;22.22;39.81;100637.91;5074928;28;20032;-82
2022/09/01 10:42:06;;;;;;;2.08;0.80;;;;;;;22.54;39.39;100642.53;5075312;28;20032;-82
2022/09/01 10:44:33;;;;;;;;;;;;;;;22.69;38.97;100624.63;5075509;28;20066;-81
2022/09/01 10:47:28;;;;;;;1.33;0.80;;;;;;;22.20;39.66;100629.19;5075542;28;19912;-81
2022/09/01 10:49:53;;;;;;;1.77;0.75;;;;;;;22.51;39.51;100639.38;5071186;28;20040;-82
2022/09/01 10:52:40;;;;;;;3.77;0.97;;;;;;;22.20;39.94;100640.28;5075149;28;20043;-81
2022/09/01 10:55:44;;;;;;;1.25;0.70;;;;;;;22.35;40.02;100627.94;5074920;28;20309;-81
2022/09/01 10:58:39;;;;;;;2.08;0.70;;;;;;;22.40;39.89;100643.38;5073198;28;20053;-83
2022/09/01 11:01:04;;;;;;;2.38;0.90;;;;;;;22.47;39.63;100632.25;5073848;28;20029;-82
2022/09/01 11:03:29;;;;;;;1.95;0.80;;;;;;;22.31;40.14;100629.94;5074911;28;20103;-81
2022/09/01 11:06:04;;;;;;;1.33;0.70;;;;;;;22.46;39.92;100627.88;5075506;28;20064;-81
2022/09/01 11:08:29;;;;;;;2.90;0.82;;;;;;;22.71;39.77;100627.78;5074774;28;20338;-81
2022/09/01 11:11:04;;;;;;;2.42;0.85;;;;;;;22.85;38.87;100619.41;5074846;28;20423;-81
2022/09/01 11:14:03;;;;;;;2.00;0.80;;;;;;;22.86;39.18;100620.19;5073652;28;20047;-81
2022/09/01 11:16:35;;;;;;;2.38;0.80;;;;;;;23.04;38.97;100624.44;5073014;28;20381;-81
2022/09/01 11:19:27;;;;;;;1.48;0.68;;;;;;;23.14;38.80;100606.09;5074622;28;20482;-82
2022/09/01 11:22:17;;;;;;;1.65;0.73;;;;;;;22.97;39.01;100621.69;5074395;28;20107;-81
2022/09/01 11:24:43;;;;;;;1.40;0.68;;;;;;;23.00;38.52;100614.53;5074428;28;20085;-81
2022/09/01 11:27:30;;;;;;;2.03;0.90;;;;;;;23.07;38.44;100609.72;5072284;28;20043;-76
2022/09/01 11:30:00;;;;;;;2.05;0.75;;;;;;;23.26;38.13;100611.16;5073879;28;20061;-76
2022/09/01 11:32:35;;;;;;;2.47;1.02;;;;;;;22.97;39.02;100605.03;5072781;28;20451;-77
2022/09/01 11:35:13;;;;;;;2.22;0.80;;;;;;;23.13;38.56;100604.50;5073906;28;20082;-76
2022/09/01 11:37:39;;;;;;;1.60;0.80;;;;;;;23.22;38.10;100609.63;5074193;28;20033;-75
2022/09/01 11:40:09;;;;;;;3.33;1.05;;;;;;;22.94;38.71;100608.63;5073779;28;20478;-75
2022/09/01 11:42:42;;;;;;;1.85;0.80;;;;;;;23.16;38.19;100608.47;5074000;28;20024;-74
2022/09/01 11:45:17;;;;;;;1.95;0.80;;;;;;;23.16;38.13;100597.34;5073601;28;20151;-76
2022/09/01 11:47:48;;;;;;;2.08;0.90;;;;;;;23.24;37.78;100602.47;5073828;28;20036;-76
2022/09/01 11:50:27;;;;;;;2.47;0.90;;;;;;;23.33;37.87;100599.19;5073740;28;20467;-77